Latest Weather Observations for Blackwater Airport

IDQ60801

Issued at 10:32 am EST Sunday 1 February 2015 (issued every 30 minutes, with the page automatically refreshed every 10 minutes)

About weather observations | Map of weather stations | Latest weather observations for QLD | Other Formats
Station Details ID: 035134 Name: BLACKWATER AIRPORT Lat: -23.60 Lon: 148.81 Height: 192.95 m
Data from the previous 72 hours. | See also: Recent months at Blackwater Airport
Date/Time
EST
Temp
°C
App
Temp
°C
Dew
Point
Rel
Hum
%
Delta-T
°C
Wind Press
QNH
hPa
Press
MSL
hPa
Rain
since 9 am
mm
Dir
 
Spd
km/h
Gust
km/h
Spd
kts
Gust
kts
01/10:30am 30.3 33.4 20.2 54 6.7 NW 4 11 2 6 1008.0 1006.8 0.0
01/10:00am 29.8 32.6 21.5 61 5.6 NW 9 15 5 8 1008.3 1007.1 0.0
01/09:30am 29.0 31.8 21.5 64 5.1 N 9 15 5 8 1008.5 1007.2 0.0
01/09:00am 27.9 29.4 20.5 64 4.9 NW 13 24 7 13 1008.5 1007.2 0.0
01/08:30am 27.1 29.5 20.9 69 4.1 NNW 9 13 5 7 1008.7 1007.3 0.0
01/08:00am 26.1 28.6 21.1 74 3.3 N 9 13 5 7 1008.5 1007.2 0.0
01/07:30am 25.3 27.8 21.0 77 2.9 N 9 11 5 6 1008.4 1007.1 0.0
01/07:00am 24.5 27.6 21.0 81 2.3 NNE 6 9 3 5 1008.3 1007.0 0.0
01/06:30am 23.4 26.4 20.9 86 1.6 NE 6 9 3 5 1008.1 1006.8 0.0
01/06:00am 22.2 24.8 20.1 88 1.4 NNE 6 7 3 4 1007.6 1006.3 0.0
01/05:30am 22.5 25.1 20.4 88 1.4 ENE 7 9 4 5 1007.1 1005.8 0.0
01/05:00am 22.4 25.1 20.3 88 1.4 ENE 6 7 3 4 1006.9 1005.6 0.0
01/04:30am 22.3 24.2 20.6 90 1.1 ENE 11 13 6 7 1006.6 1005.3 0.0
01/04:00am 22.2 24.4 20.5 90 1.1 NE 9 11 5 6 1006.6 1005.3 0.0
01/03:30am 22.3 24.9 20.4 89 1.2 ENE 7 11 4 6 1006.5 1005.2 0.0
01/03:00am 22.4 24.5 20.1 87 1.5 ENE 9 11 5 6 1006.4 1005.1 0.0
01/02:30am 22.4 24.6 20.3 88 1.4 NE 9 11 5 6 1006.4 1005.1 0.0
01/02:00am 22.6 25.0 20.1 86 1.6 NE 7 11 4 6 1006.6 1005.3 0.0
01/01:30am 23.1 24.5 20.4 85 1.8 ENE 13 15 7 8 1006.9 1005.6 0.0
01/01:00am 23.0 24.4 20.3 85 1.8 NE 13 15 7 8 1007.2 1005.9 0.0
01/12:30am 23.2 24.4 19.8 81 2.2 NE 13 17 7 9 1007.5 1006.2 0.0
01/12:00am 24.0 24.7 19.7 77 2.8 ENE 15 17 8 9 1007.7 1006.4 0.0
 
Date/Time
EST
Temp
°C
App
Temp
°C
Dew
Point
Rel
Hum
%
Delta-T
°C
Wind Press
QNH
hPa
Press
MSL
hPa
Rain
since 9 am
mm
Dir
 
Spd
km/h
Gust
km/h
Spd
kts
Gust
kts
31/11:30pm 23.9 24.9 20.2 80 2.4 ENE 15 20 8 11 1007.7 1006.4 0.0
31/11:00pm 23.9 25.9 20.0 79 2.5 NE 9 13 5 7 1007.8 1006.5 0.0
31/10:30pm 24.5 27.1 20.4 78 2.7 N 7 9 4 5 1007.5 1006.2 0.0
31/10:00pm 25.0 29.1 20.7 77 2.8 CALM 0 0 0 0 1007.3 1006.0 0.0
31/09:30pm 24.5 28.3 21.0 81 2.3 E 2 6 1 3 1007.1 1005.8 0.0
31/09:00pm 24.3 27.8 20.4 79 2.6 NE 2 7 1 4 1006.9 1005.6 0.0
31/08:30pm 25.2 27.1 19.8 72 3.5 E 9 15 5 8 1006.6 1005.3 0.0
31/08:00pm 27.7 29.0 19.2 60 5.5 SE 11 15 6 8 1006.2 1004.9 0.0
31/07:30pm 26.8 28.7 19.7 65 4.6 SSE 9 13 5 7 1006.1 1004.8 0.0
31/07:00pm 26.4 28.8 20.0 68 4.2 SE 7 11 4 6 1006.0 1004.7 0.0
31/06:30pm 27.2 27.4 19.3 62 5.1 SE 17 24 9 13 1005.9 1004.6 0.0
31/06:00pm 29.7 28.2 17.8 48 7.7 SSE 22 32 12 17 1005.9 1004.6 0.0
31/05:46pm 30.7 30.0 16.3 42 9.1 SSW 15 39 8 21 1005.7 1004.4 0.0
31/05:30pm 33.6 33.7 15.6 34 11.3 W 9 13 5 7 1005.2 1003.8 0.0
31/05:00pm 33.5 33.6 15.5 34 11.3 NW 9 13 5 7 1004.9 1003.5 0.0
31/04:30pm 33.7 34.8 16.5 35 11.0 NNW 6 15 3 8 1004.7 1003.3 0.0
31/04:00pm 33.2 33.4 15.7 35 11.1 NW 9 17 5 9 1004.8 1003.4 0.0
31/03:30pm 33.0 32.9 15.9 35 10.8 W 11 20 6 11 1005.0 1003.6 0.0
31/03:00pm 33.1 34.7 19.2 43 9.2 WSW 9 15 5 8 1005.5 1004.2 0.0
31/02:30pm 32.5 33.7 18.3 43 9.3 WNW 9 20 5 11 1006.2 1004.9 0.0
31/02:00pm 32.3 33.6 18.5 44 9.0 WSW 9 20 5 11 1006.5 1005.2 0.0
31/01:30pm 31.8 33.4 19.1 47 8.4 W 9 15 5 8 1007.0 1005.7 0.0
31/01:00pm 31.5 34.1 20.4 51 7.4 NNW 7 15 4 8 1007.6 1006.3 0.0
31/12:30pm 31.0 33.6 21.2 56 6.6 NNE 9 20 5 11 1008.0 1006.7 0.0
31/12:00pm 30.2 32.9 21.3 59 6.0 NNW 9 15 5 8 1008.4 1007.1 0.0
31/11:30am 29.5 31.6 20.1 57 6.2 WNW 9 17 5 9 1008.8 1007.4 0.0
31/11:00am 29.1 31.8 22.1 66 4.8 NNW 11 19 6 10 1009.1 1007.7 0.0
31/10:30am 28.7 31.2 21.7 66 4.7 NNE 11 17 6 9 1009.5 1008.1 0.0
31/10:00am 27.5 29.6 20.1 64 4.9 N 9 13 5 7 1009.9 1008.5 0.0
31/09:30am 27.1 29.5 21.6 72 3.7 NW 11 17 6 9 1010.0 1008.7 0.0
31/09:00am 25.3 27.0 21.0 77 2.9 NW 13 17 7 9 1010.2 1008.9 0.0
31/08:30am 25.4 28.1 21.3 78 2.7 NNW 9 11 5 6 1010.2 1008.9 0.0
31/08:00am 24.4 27.0 20.1 77 2.8 WNW 6 11 3 6 1010.0 1008.7 0.0
31/07:30am 24.6 27.7 20.3 77 2.8 E 4 7 2 4 1009.9 1008.5 0.0
31/07:00am 23.1 26.6 19.5 80 2.3 CALM 0 0 0 0 1009.9 1008.5 0.0
31/06:30am 21.4 24.2 19.7 90 1.1 WNW 4 9 2 5 1009.7 1008.3 0.0
31/06:00am 20.3 21.8 18.8 91 0.9 ENE 9 11 5 6 1009.1 1007.7 0.0
31/05:30am 20.6 22.1 18.9 90 1.1 ENE 9 11 5 6 1008.5 1007.2 0.0
31/05:00am 20.8 21.7 19.3 91 1.0 E 13 17 7 9 1008.2 1006.9 0.0
31/04:30am 20.7 22.2 19.0 90 1.1 E 9 13 5 7 1008.2 1006.9 0.0
31/04:00am 20.7 22.0 19.2 91 1.0 E 11 11 6 6 1008.0 1006.7 0.0
31/03:30am 20.7 22.0 19.2 91 1.0 ENE 11 13 6 7 1008.0 1006.7 0.0
31/03:00am 20.6 22.3 19.3 92 0.8 NE 9 11 5 6 1007.8 1006.5 0.0
31/02:30am 20.7 22.4 19.4 92 0.8 NE 9 13 5 7 1007.6 1006.3 0.0
31/02:00am 20.9 23.1 19.6 92 0.8 ENE 7 9 4 5 1007.7 1006.4 0.0
31/01:30am 21.0 22.8 19.5 91 1.0 NE 9 11 5 6 1007.7 1006.4 0.0
31/01:00am 21.5 22.9 19.6 89 1.2 NE 11 15 6 8 1007.7 1006.4 0.0
31/12:30am 21.9 23.4 19.8 88 1.4 ENE 11 15 6 8 1008.0 1006.7 0.0
31/12:00am 22.1 23.3 20.0 88 1.4 ENE 13 15 7 8 1008.4 1007.1 0.0
 
Date/Time
EST
Temp
°C
App
Temp
°C
Dew
Point
Rel
Hum
%
Delta-T
°C
Wind Press
QNH
hPa
Press
MSL
hPa
Rain
since 9 am
mm
Dir
 
Spd
km/h
Gust
km/h
Spd
kts
Gust
kts
30/11:30pm 22.1 23.7 20.0 88 1.4 ENE 11 15 6 8 1008.9 1007.5 0.0
30/11:00pm 22.5 24.1 20.0 86 1.6 ENE 11 15 6 8 1008.9 1007.5 0.0
30/10:30pm 22.9 23.5 20.2 85 1.8 ENE 17 22 9 12 1008.7 1007.3 0.0
30/10:00pm 23.4 23.3 20.0 81 2.2 ENE 20 28 11 15 1008.2 1006.9 0.0
30/09:30pm 24.1 25.7 19.2 74 3.2 ESE 9 11 5 6 1007.9 1006.6 0.0
30/09:00pm 25.1 27.1 18.8 68 4.0 NE 6 7 3 4 1007.8 1006.5 0.0
30/08:30pm 25.6 27.3 18.0 63 4.8 NE 6 7 3 4 1007.6 1006.3 0.0
30/08:00pm 25.8 27.6 18.2 63 4.9 NE 6 7 3 4 1007.5 1006.2 0.0
30/07:30pm 26.5 28.4 18.6 62 5.1 NE 6 6 3 3 1007.4 1006.1 0.0
30/07:00pm 26.6 29.0 20.0 67 4.3 NNE 7 9 4 5 1007.0 1005.7 0.0
30/06:30pm 27.8 29.5 18.5 57 6.0 NE 7 7 4 4 1006.6 1005.3 0.0
30/06:00pm 28.8 30.0 18.3 53 6.8 NE 9 13 5 7 1006.4 1005.1 0.0
30/05:30pm 29.3 29.8 17.5 49 7.5 NE 11 17 6 9 1006.2 1004.9 0.0
30/05:00pm 30.1 31.0 17.5 46 8.1 ENE 9 15 5 8 1006.0 1004.7 0.0
30/04:30pm 30.3 31.5 19.0 50 7.4 ENE 11 17 6 9 1006.0 1004.7 0.0
30/04:00pm 29.8 30.3 18.3 50 7.5 NE 13 19 7 10 1006.2 1004.9 0.0
30/03:30pm 28.9 28.8 18.7 54 6.6 E 17 20 9 11 1006.4 1005.1 0.0
30/03:00pm 26.7 25.6 17.7 57 5.7 SE 20 32 11 17 1006.9 1005.6 0.0
30/02:30pm 28.0 29.9 19.8 61 5.4 ESE 9 13 5 7 1007.3 1006.0 0.0
30/02:00pm 27.0 27.6 20.3 66 4.4 E 17 20 9 11 1007.4 1006.1 0.0
30/01:30pm 27.8 28.3 19.3 60 5.5 ESE 15 22 8 12 1007.7 1006.4 0.0
30/01:00pm 29.6 31.1 18.1 50 7.4 NW 7 13 4 7 1007.8 1006.5 0.0
30/12:30pm 29.2 30.4 18.3 51 7.0 NE 9 20 5 11 1008.1 1006.8 0.0
30/12:00pm 28.9 30.5 19.2 55 6.3 NNE 9 20 5 11 1008.8 1007.4 0.0
30/11:30am 29.1 31.0 19.7 57 6.2 NE 9 15 5 8 1009.3 1007.9 0.0
30/11:00am 28.6 30.3 20.1 60 5.6 NNE 11 20 6 11 1009.6 1008.2 0.0
30/10:30am 27.9 30.0 20.2 63 5.1 ENE 9 19 5 10 1009.8 1008.4 0.0
30/10:00am 27.3 28.6 20.1 64 4.7 E 13 20 7 11 1009.8 1008.4 0.0
30/09:30am 27.1 27.7 20.2 66 4.5 ENE 17 20 9 11 1009.7 1008.3 0.0
30/09:00am 27.2 28.7 21.2 69 4.0 ENE 15 22 8 12 1009.8 1008.4 4.4
30/08:30am 25.9 26.2 19.5 68 4.2 ENE 17 24 9 13 1009.7 1008.3 4.4
30/08:00am 25.4 26.1 20.4 74 3.3 ENE 17 22 9 12 1009.7 1008.3 4.2
30/07:30am 24.6 26.4 20.3 77 2.8 E 11 17 6 9 1009.5 1008.1 4.2
30/07:00am 24.0 26.5 19.9 78 2.7 ESE 6 9 3 5 1009.4 1008.0 4.2
30/06:30am 22.7 25.4 20.2 86 1.6 SE 6 9 3 5 1009.0 1007.6 4.2
30/06:00am 21.5 23.4 19.8 90 1.1 ESE 9 11 5 6 1008.5 1007.2 4.2
30/05:30am 21.6 23.2 19.9 90 1.1 ESE 11 13 6 7 1008.2 1006.9 4.2
30/05:00am 21.5 23.5 20.0 91 1.0 ESE 9 11 5 6 1008.0 1006.7 4.2
30/04:30am 21.3 23.3 19.9 92 0.9 E 9 13 5 7 1008.0 1006.7 4.2
30/04:00am 21.2 23.1 19.8 92 0.9 E 9 11 5 6 1008.0 1006.7 4.2
30/03:30am 21.2 23.1 19.7 91 1.0 E 9 11 5 6 1008.0 1006.7 4.2
30/03:00am 21.2 23.0 19.5 90 1.1 E 9 13 5 7 1007.8 1006.5 4.2
30/02:30am 21.1 23.0 19.7 92 0.9 E 9 11 5 6 1008.0 1006.7 4.2
30/02:00am 21.2 23.1 19.7 91 1.0 NE 9 9 5 5 1008.3 1007.0 4.2
30/01:30am 21.2 23.4 19.5 90 1.1 NE 7 9 4 5 1008.7 1007.3 4.2
30/01:00am 21.8 24.0 19.7 88 1.4 ENE 7 11 4 6 1008.5 1007.2 4.2
30/12:30am 22.1 24.0 19.8 87 1.5 ENE 9 13 5 7 1008.7 1007.3 4.2
30/12:00am 22.5 24.1 19.9 85 1.7 ENE 11 15 6 8 1008.9 1007.5 4.2
 
Date/Time
EST
Temp
°C
App
Temp
°C
Dew
Point
Rel
Hum
%
Delta-T
°C
Wind Press
QNH
hPa
Press
MSL
hPa
Rain
since 9 am
mm
Dir
 
Spd
km/h
Gust
km/h
Spd
kts
Gust
kts
29/11:30pm 23.0 23.8 19.8 82 2.1 E 15 20 8 11 1009.0 1007.6 4.2
29/11:00pm 22.8 23.8 19.4 81 2.2 ENE 13 19 7 10 1009.1 1007.7 4.2
29/10:30pm 23.0 24.2 19.8 82 2.1 ENE 13 17 7 9 1008.9 1007.5 4.2
29/10:00pm 22.7 24.2 19.7 83 1.9 ENE 11 13 6 7 1008.7 1007.3 4.2
29/09:30pm 23.0 24.9 19.8 82 2.1 E 9 11 5 6 1008.4 1007.1 4.2
29/09:00pm 23.2 24.3 19.6 80 2.3 ENE 13 15 7 8 1008.0 1006.7 4.2
29/08:30pm 23.0 24.4 19.6 81 2.2 ENE 11 15 6 8 1007.6 1006.3 4.2
29/08:00pm 23.7 24.6 19.2 76 2.9 ENE 13 17 7 9 1007.4 1006.1 4.2
29/07:30pm 24.7 25.6 19.3 72 3.5 E 13 19 7 10 1007.2 1005.9 4.2
29/07:00pm 25.6 26.6 19.5 69 4.0 ENE 13 15 7 8 1006.9 1005.6 4.2
29/06:30pm 26.8 27.3 19.2 63 4.9 ENE 15 20 8 11 1006.5 1005.2 4.2
29/06:00pm 27.2 27.5 19.5 62 5.0 NE 17 26 9 14 1006.2 1004.9 4.2
29/05:30pm 27.2 27.1 19.5 62 5.0 ENE 19 22 10 12 1006.0 1004.7 4.2
29/05:00pm 28.1 28.9 20.6 63 5.0 ENE 17 20 9 11 1006.0 1004.7 4.2
29/04:30pm 26.7 27.0 20.5 69 4.1 E 19 24 10 13 1005.6 1004.3 4.2
29/04:00pm 26.8 27.8 21.1 71 3.8 E 17 20 9 11 1006.0 1004.7 4.2
29/03:30pm 26.0 27.6 21.4 76 3.1 ESE 15 20 8 11 1005.8 1004.5 4.2
29/03:00pm 25.6 28.1 21.7 79 2.6 ESE 11 15 6 8 1006.1 1004.8 4.2
29/02:30pm 24.9 29.0 22.2 85 1.8 E 4 9 2 5 1006.3 1005.0 4.2
29/02:00pm 23.9 23.8 20.0 79 2.5 SW 20 33 11 18 1006.1 1004.8 2.2
29/01:58pm 24.2 24.2 19.7 76 2.9 SW 19 33 10 18 1006.0 1004.7 2.2
29/01:30pm 29.3 30.4 21.3 62 5.4 ENE 17 28 9 15 1006.0 1004.7 2.2
29/01:00pm 28.4 30.0 21.4 66 4.7 ENE 15 20 8 11 1006.3 1005.0 2.2
29/12:30pm 27.3 28.2 20.1 64 4.7 ENE 15 22 8 12 1006.7 1005.4 2.2
29/12:00pm 27.4 30.4 21.2 69 4.2 E 7 11 4 6 1007.1 1005.8 2.2
29/11:30am 26.0 28.3 20.6 72 3.6 SSE 9 13 5 7 1007.4 1006.1 2.2
29/11:00am 24.9 26.5 19.9 74 3.3 SE 11 20 6 11 1007.6 1006.3 1.0

Other Formats:

Comma delimited format used in spreadsheet applications
http://www.bom.gov.au/fwo/IDQ60801/IDQ60801.94398.axf

JavaScript Object Notation format (JSON) in row-major order
http://www.bom.gov.au/fwo/IDQ60801/IDQ60801.94398.json